Time;durP1;ratioP1;P1;durP2;ratioP2;P2;SDS_P1;SDS_P2;PMS_P1;PMS_P2;Temp;Humidity;BMP_temperature;BMP_pressure;BME280_temperature;BME280_humidity;BME280_pressure;Samples;Min_cycle;Max_cycle;Signal;HPM_P1;HPM_P2
2022/04/18 00:01:51;;;;;;;10.93;8.48;;;;;;;;;;5040057;28;20093;-82
2022/04/18 00:04:18;;;;;;;10.32;8.30;;;;;;;;;;5024571;28;20041;-82
2022/04/18 00:06:44;;;;;;;11.27;8.15;;;;;;;;;;5037901;28;20105;-82
2022/04/18 00:09:10;;;;;;;16.88;9.35;;;;;;;;;;5045874;28;20355;-82
2022/04/18 00:11:36;;;;;;;11.30;7.95;;;;;;;;;;5047459;28;20472;-82
2022/04/18 00:14:02;;;;;;;10.35;7.47;;;;;;;;;;5047250;28;20044;-82
2022/04/18 00:16:28;;;;;;;12.80;8.20;;;;;;;;;;5067467;28;20025;-82
2022/04/18 00:18:54;;;;;;;10.32;7.47;;;;;;;;;;5065339;28;20025;-82
2022/04/18 00:21:21;;;;;;;11.32;8.27;;;;;;;;;;5050190;28;20464;-82
2022/04/18 00:23:47;;;;;;;9.98;8.32;;;;;;;;;;5058583;28;20033;-82
2022/04/18 00:26:13;;;;;;;12.52;8.57;;;;;;;;;;5048742;28;20025;-82
2022/04/18 00:28:39;;;;;;;11.52;8.25;;;;;;;;;;5045114;28;20151;-82
2022/04/18 00:31:05;;;;;;;11.25;9.00;;;;;;;;;;5045655;28;20029;-82
2022/04/18 00:33:33;;;;;;;12.50;8.95;;;;;;;;;;5035697;28;20064;-82
2022/04/18 00:35:59;;;;;;;12.93;8.95;;;;;;;;;;5038162;28;20085;-82
2022/04/18 00:38:25;;;;;;;10.30;8.60;;;;;;;;;;5024631;28;20026;-82
2022/04/18 00:40:51;;;;;;;9.77;8.05;;;;;;;;;;5035499;28;20156;-81
2022/04/18 00:43:18;;;;;;;12.35;8.05;;;;;;;;;;5044140;28;20017;-82
2022/04/18 00:45:44;;;;;;;11.07;8.43;;;;;;;;;;5055691;28;20040;-82
2022/04/18 00:48:10;;;;;;;10.50;8.27;;;;;;;;;;5053874;28;20033;-82
2022/04/18 00:50:36;;;;;;;10.80;7.97;;;;;;;;;;5050215;28;20032;-82
2022/04/18 00:53:04;;;;;;;11.15;8.45;;;;;;;;;;5048620;28;20400;-82
2022/04/18 00:55:32;;;;;;;10.57;8.73;;;;;;;;;;5054346;28;20028;-83
2022/04/18 00:58:00;;;;;;;12.05;8.65;;;;;;;;;;5065978;28;20029;-82
2022/04/18 01:00:27;;;;;;;11.45;8.68;;;;;;;;;;5065142;28;20033;-82
2022/04/18 01:02:53;;;;;;;11.98;8.65;;;;;;;;;;5048593;28;20049;-82
2022/04/18 01:05:19;;;;;;;12.55;9.25;;;;;;;;;;5052982;28;20032;-82
2022/04/18 01:07:45;;;;;;;13.05;9.27;;;;;;;;;;5047966;28;20046;-82
2022/04/18 01:10:11;;;;;;;12.73;9.73;;;;;;;;;;5060998;28;20056;-82
2022/04/18 01:12:38;;;;;;;12.05;8.55;;;;;;;;;;5048272;28;20557;-82
2022/04/18 01:15:05;;;;;;;12.98;9.35;;;;;;;;;;5051974;28;20374;-82
2022/04/18 01:17:31;;;;;;;11.85;9.02;;;;;;;;;;5048962;28;20372;-82
2022/04/18 01:19:57;;;;;;;11.55;8.73;;;;;;;;;;5047009;28;20029;-82
2022/04/18 01:22:23;;;;;;;11.63;8.80;;;;;;;;;;5048533;28;20038;-82
2022/04/18 01:30:18;;;;;;;13.25;8.63;;;;;;;;;;5047124;28;20044;-82
2022/04/18 01:32:44;;;;;;;10.57;8.00;;;;;;;;;;5044449;28;20240;-82
2022/04/18 01:35:10;;;;;;;13.48;8.40;;;;;;;;;;5054272;28;20029;-82
2022/04/18 01:37:37;;;;;;;11.48;8.18;;;;;;;;;;5042527;28;20014;-82
2022/04/18 01:40:04;;;;;;;12.48;9.02;;;;;;;;;;5046936;28;20018;-82
2022/04/18 01:42:30;;;;;;;11.82;8.55;;;;;;;;;;5046691;28;20035;-82
2022/04/18 01:44:56;;;;;;;11.10;8.43;;;;;;;;;;5051370;28;20033;-82
2022/04/18 01:47:22;;;;;;;11.13;8.57;;;;;;;;;;5066006;28;20036;-82
2022/04/18 01:49:48;;;;;;;10.60;7.82;;;;;;;;;;5064030;28;20029;-82
2022/04/18 01:52:15;;;;;;;11.20;8.18;;;;;;;;;;5043731;28;20101;-81
2022/04/18 01:54:41;;;;;;;11.75;9.25;;;;;;;;;;5037567;28;20089;-82
2022/04/18 01:57:07;;;;;;;10.05;7.78;;;;;;;;;;5027883;28;20057;-82
2022/04/18 01:59:33;;;;;;;12.55;9.00;;;;;;;;;;5028786;28;20018;-82
2022/04/18 02:01:59;;;;;;;11.93;8.98;;;;;;;;;;5051531;28;20032;-82
2022/04/18 02:04:25;;;;;;;10.90;8.15;;;;;;;;;;5046129;28;20041;-81
2022/04/18 02:06:51;;;;;;;11.23;7.90;;;;;;;;;;5047244;28;20025;-81
2022/04/18 02:09:17;;;;;;;12.27;8.52;;;;;;;;;;5047740;28;20045;-82
2022/04/18 02:11:43;;;;;;;11.88;8.82;;;;;;;;;;5064465;28;20078;-82
2022/04/18 02:14:09;;;;;;;11.23;7.95;;;;;;;;;;5051774;28;20065;-82
2022/04/18 02:16:35;;;;;;;10.15;8.00;;;;;;;;;;5044979;28;20579;-82
2022/04/18 02:19:01;;;;;;;12.32;8.07;;;;;;;;;;5050192;28;20089;-82
2022/04/18 02:21:27;;;;;;;10.68;7.63;;;;;;;;;;5067053;28;20021;-82
2022/04/18 02:23:53;;;;;;;11.65;8.10;;;;;;;;;;5054413;28;20037;-82
2022/04/18 02:26:19;;;;;;;11.10;8.70;;;;;;;;;;5029425;28;20025;-82
2022/04/18 02:28:45;;;;;;;11.05;8.50;;;;;;;;;;5052665;28;20032;-82
2022/04/18 02:31:11;;;;;;;11.93;8.05;;;;;;;;;;5059217;28;20031;-82
2022/04/18 02:33:37;;;;;;;10.75;8.35;;;;;;;;;;5045410;28;20063;-82
2022/04/18 02:36:03;;;;;;;11.60;8.52;;;;;;;;;;5058693;28;20033;-82
2022/04/18 02:38:29;;;;;;;11.52;8.23;;;;;;;;;;5055969;28;20498;-82
2022/04/18 02:40:55;;;;;;;13.10;8.50;;;;;;;;;;5048603;28;20033;-82
2022/04/18 02:43:22;;;;;;;13.43;9.10;;;;;;;;;;5046985;28;20032;-82
2022/04/18 02:45:48;;;;;;;11.65;9.00;;;;;;;;;;5046153;28;20092;-81
2022/04/18 02:48:14;;;;;;;11.60;9.05;;;;;;;;;;5054531;28;20029;-82
2022/04/18 02:50:40;;;;;;;13.27;8.65;;;;;;;;;;5065137;28;20025;-82
2022/04/18 02:53:07;;;;;;;10.88;8.52;;;;;;;;;;5049968;28;20033;-82
2022/04/18 02:55:33;;;;;;;12.52;8.68;;;;;;;;;;5046053;28;20033;-82
2022/04/18 02:57:59;;;;;;;10.82;8.30;;;;;;;;;;5050578;28;20025;-82
2022/04/18 03:00:25;;;;;;;11.35;8.25;;;;;;;;;;5064014;28;20033;-81
2022/04/18 03:02:51;;;;;;;10.75;8.00;;;;;;;;;;5044090;28;20029;-82
2022/04/18 03:05:17;;;;;;;10.05;7.63;;;;;;;;;;5025722;28;20030;-81
2022/04/18 03:07:44;;;;;;;10.77;7.65;;;;;;;;;;5041367;28;20136;-82
2022/04/18 03:10:10;;;;;;;12.02;8.00;;;;;;;;;;5045858;28;20028;-82
2022/04/18 03:12:36;;;;;;;10.95;7.85;;;;;;;;;;5074955;28;20027;-81
2022/04/18 03:15:02;;;;;;;11.40;8.10;;;;;;;;;;5036771;28;20022;-81
2022/04/18 03:17:28;;;;;;;10.55;7.72;;;;;;;;;;5045135;28;20025;-81
2022/04/18 03:19:54;;;;;;;10.82;7.53;;;;;;;;;;5056813;28;20104;-81
2022/04/18 03:22:21;;;;;;;10.85;7.70;;;;;;;;;;5059151;28;20017;-81
2022/04/18 03:24:47;;;;;;;14.20;8.85;;;;;;;;;;5057546;28;20030;-81
2022/04/18 03:27:13;;;;;;;11.63;8.35;;;;;;;;;;5058783;28;20029;-81
2022/04/18 03:29:39;;;;;;;10.70;8.20;;;;;;;;;;5060343;28;20021;-81
2022/04/18 03:32:05;;;;;;;12.40;8.27;;;;;;;;;;5049832;28;20036;-82
2022/04/18 03:34:32;;;;;;;11.25;9.32;;;;;;;;;;5043746;28;20031;-81
2022/04/18 03:39:51;;;;;;;12.48;8.80;;;;;;;;;;5039769;28;20028;-81
2022/04/18 03:42:18;;;;;;;13.23;9.07;;;;;;;;;;5055653;28;20093;-81
2022/04/18 03:44:45;;;;;;;12.18;8.52;;;;;;;;;;5043160;28;20114;-82
2022/04/18 03:47:11;;;;;;;11.00;8.02;;;;;;;;;;5026744;28;20033;-82
2022/04/18 03:49:38;;;;;;;11.88;8.40;;;;;;;;;;5043791;28;20093;-82
2022/04/18 03:52:04;;;;;;;12.30;8.57;;;;;;;;;;5050051;28;20010;-81
2022/04/18 03:54:30;;;;;;;11.35;8.32;;;;;;;;;;5049869;28;20029;-82
2022/04/18 03:56:57;;;;;;;12.30;8.38;;;;;;;;;;5038315;28;20048;-82
2022/04/18 03:59:23;;;;;;;11.48;8.13;;;;;;;;;;5041454;28;20109;-81
2022/04/18 04:01:49;;;;;;;11.38;8.20;;;;;;;;;;5043244;28;20653;-81
2022/04/18 04:04:15;;;;;;;12.25;8.55;;;;;;;;;;5033007;28;20030;-82
2022/04/18 04:06:41;;;;;;;10.55;8.02;;;;;;;;;;5038938;28;20076;-81
2022/04/18 04:09:07;;;;;;;12.98;9.15;;;;;;;;;;5039975;28;20046;-81
2022/04/18 04:11:33;;;;;;;11.90;8.30;;;;;;;;;;5028971;28;20057;-81
2022/04/18 04:13:59;;;;;;;13.48;8.25;;;;;;;;;;5019294;28;20034;-82
2022/04/18 04:16:25;;;;;;;11.32;8.23;;;;;;;;;;5017719;28;20026;-81
2022/04/18 04:18:51;;;;;;;12.52;8.93;;;;;;;;;;5018603;28;20022;-81
2022/04/18 04:21:18;;;;;;;12.80;8.43;;;;;;;;;;5020163;28;20060;-81
2022/04/18 04:23:43;;;;;;;11.98;8.70;;;;;;;;;;5027587;28;20484;-81
2022/04/18 04:26:10;;;;;;;12.38;8.15;;;;;;;;;;5036840;28;20025;-82
2022/04/18 04:28:36;;;;;;;10.70;8.25;;;;;;;;;;5039316;28;20044;-81
2022/04/18 04:31:04;;;;;;;11.68;7.85;;;;;;;;;;5025569;28;20072;-81
2022/04/18 04:33:34;;;;;;;12.55;8.10;;;;;;;;;;5046894;28;20033;-81
2022/04/18 04:36:00;;;;;;;10.27;7.32;;;;;;;;;;5024396;28;20391;-81
2022/04/18 04:38:26;;;;;;;11.02;7.88;;;;;;;;;;5050487;28;20032;-81
2022/04/18 04:40:54;;;;;;;12.68;8.52;;;;;;;;;;5042332;28;20033;-81
2022/04/18 04:43:29;;;;;;;12.07;8.38;;;;;;;;;;5044052;28;20049;-81
2022/04/18 04:45:56;;;;;;;10.77;7.65;;;;;;;;;;5043011;28;20027;-82
2022/04/18 04:48:22;;;;;;;12.45;7.97;;;;;;;;;;5042215;28;20033;-82
2022/04/18 04:50:48;;;;;;;11.90;7.97;;;;;;;;;;5046832;28;20049;-82
2022/04/18 04:53:14;;;;;;;13.23;8.23;;;;;;;;;;5043052;28;20071;-82
2022/04/18 04:55:41;;;;;;;11.32;7.90;;;;;;;;;;5044510;28;20060;-81
2022/04/18 04:58:09;;;;;;;14.52;8.50;;;;;;;;;;5044551;28;20343;-82
2022/04/18 05:00:36;;;;;;;11.77;8.25;;;;;;;;;;5049049;28;20032;-82
2022/04/18 05:03:02;;;;;;;13.77;9.13;;;;;;;;;;5068999;28;20067;-81
2022/04/18 05:05:28;;;;;;;13.13;9.07;;;;;;;;;;5066851;28;20029;-82
2022/04/18 05:07:55;;;;;;;12.60;9.07;;;;;;;;;;5067801;28;20065;-82
2022/04/18 05:10:22;;;;;;;13.77;9.38;;;;;;;;;;5055459;28;20021;-82
2022/04/18 05:12:48;;;;;;;11.68;8.52;;;;;;;;;;5058888;28;20029;-82
2022/04/18 05:15:14;;;;;;;11.95;8.48;;;;;;;;;;5066946;28;20095;-81
2022/04/18 05:17:40;;;;;;;11.10;8.48;;;;;;;;;;5053892;28;20387;-81
2022/04/18 05:20:06;;;;;;;11.98;8.80;;;;;;;;;;5069858;28;20074;-82
2022/04/18 05:22:32;;;;;;;14.65;10.18;;;;;;;;;;5068123;28;20048;-82
2022/04/18 05:24:58;;;;;;;14.77;11.05;;;;;;;;;;5056620;28;20025;-81
2022/04/18 05:27:25;;;;;;;15.20;11.45;;;;;;;;;;5049995;28;20025;-82
2022/04/18 05:29:51;;;;;;;15.50;10.27;;;;;;;;;;5048253;28;20096;-82
2022/04/18 05:32:19;;;;;;;12.70;9.65;;;;;;;;;;5052622;28;20450;-82
2022/04/18 05:34:45;;;;;;;12.73;9.60;;;;;;;;;;5058043;28;20029;-82
2022/04/18 05:37:11;;;;;;;24.95;18.80;;;;;;;;;;5048368;28;20052;-82
2022/04/18 05:39:37;;;;;;;15.02;11.50;;;;;;;;;;5042194;28;20022;-81
2022/04/18 05:42:04;;;;;;;13.23;8.85;;;;;;;;;;5057127;28;20197;-82
2022/04/18 05:44:32;;;;;;;13.20;9.82;;;;;;;;;;5053224;28;20080;-82
2022/04/18 05:46:58;;;;;;;12.30;8.98;;;;;;;;;;5041892;28;20022;-82
2022/04/18 05:49:24;;;;;;;10.05;7.38;;;;;;;;;;5024759;28;20033;-82
2022/04/18 05:51:50;;;;;;;11.77;7.35;;;;;;;;;;5054360;28;20029;-82
2022/04/18 05:54:16;;;;;;;10.35;7.95;;;;;;;;;;5062956;28;20021;-81
2022/04/18 05:56:42;;;;;;;10.50;7.47;;;;;;;;;;5048260;28;20026;-82
2022/04/18 05:59:09;;;;;;;11.38;7.60;;;;;;;;;;5029698;28;20345;-82
2022/04/18 06:01:35;;;;;;;10.90;7.53;;;;;;;;;;5029807;28;20018;-82
2022/04/18 06:04:02;;;;;;;10.30;7.80;;;;;;;;;;5029213;28;20025;-82
2022/04/18 06:06:28;;;;;;;10.85;7.55;;;;;;;;;;5035860;28;20078;-82
2022/04/18 06:08:54;;;;;;;11.15;7.88;;;;;;;;;;5049157;28;20412;-82
2022/04/18 06:11:20;;;;;;;10.95;7.63;;;;;;;;;;5043856;28;20028;-82
2022/04/18 06:13:47;;;;;;;11.10;8.07;;;;;;;;;;5063150;28;20128;-82
2022/04/18 06:16:13;;;;;;;12.45;7.72;;;;;;;;;;5068882;28;20029;-81
2022/04/18 06:18:39;;;;;;;11.27;8.00;;;;;;;;;;5047948;28;20101;-82
2022/04/18 06:21:06;;;;;;;23.08;15.73;;;;;;;;;;5046396;28;20014;-82
2022/04/18 06:23:32;;;;;;;13.70;9.75;;;;;;;;;;5060744;28;20017;-82
2022/04/18 06:25:58;;;;;;;11.48;7.30;;;;;;;;;;5033698;28;20052;-82
2022/04/18 06:28:24;;;;;;;9.20;7.45;;;;;;;;;;5029790;28;20057;-82
2022/04/18 06:30:51;;;;;;;9.57;7.43;;;;;;;;;;5045431;28;20057;-82
2022/04/18 06:33:18;;;;;;;10.63;7.75;;;;;;;;;;5026166;28;20026;-82
2022/04/18 06:35:46;;;;;;;9.25;6.60;;;;;;;;;;5035490;28;20051;-81
2022/04/18 06:38:12;;;;;;;9.57;6.97;;;;;;;;;;5035669;28;20028;-81
2022/04/18 06:40:38;;;;;;;9.98;7.25;;;;;;;;;;5047978;28;20021;-81
2022/04/18 06:43:04;;;;;;;10.32;7.55;;;;;;;;;;5059945;28;20495;-81
2022/04/18 06:45:31;;;;;;;9.45;6.40;;;;;;;;;;5055346;28;20037;-81
2022/04/18 06:47:57;;;;;;;10.07;7.13;;;;;;;;;;5044736;28;20032;-82
2022/04/18 06:50:23;;;;;;;9.60;7.25;;;;;;;;;;5033516;28;20491;-82
2022/04/18 06:52:54;;;;;;;12.07;7.80;;;;;;;;;;5027530;28;20315;-81
2022/04/18 06:55:20;;;;;;;12.23;7.32;;;;;;;;;;5028503;28;20025;-81
2022/04/18 06:57:46;;;;;;;10.20;8.38;;;;;;;;;;5056087;28;20029;-82
2022/04/18 07:00:12;;;;;;;10.32;7.50;;;;;;;;;;5057917;28;20395;-82
2022/04/18 07:02:45;;;;;;;9.18;7.38;;;;;;;;;;5038240;28;20231;-82
2022/04/18 07:05:11;;;;;;;10.05;6.43;;;;;;;;;;5026853;28;20033;-82
2022/04/18 07:07:37;;;;;;;10.27;7.00;;;;;;;;;;5025404;28;20034;-82
2022/04/18 07:10:04;;;;;;;10.88;6.63;;;;;;;;;;5036605;28;20033;-82
2022/04/18 07:12:30;;;;;;;12.27;8.70;;;;;;;;;;5045582;28;20030;-82
2022/04/18 07:14:59;;;;;;;14.20;9.80;;;;;;;;;;5050448;28;20055;-82
2022/04/18 07:17:25;;;;;;;9.02;6.15;;;;;;;;;;5033153;28;20464;-82
2022/04/18 07:19:51;;;;;;;9.15;6.60;;;;;;;;;;5044299;28;20036;-82
2022/04/18 07:22:17;;;;;;;8.23;6.22;;;;;;;;;;5045504;28;20029;-82
2022/04/18 07:24:43;;;;;;;8.65;6.00;;;;;;;;;;5046235;28;20025;-82
2022/04/18 07:27:09;;;;;;;9.15;5.80;;;;;;;;;;5038042;28;20077;-82
2022/04/18 07:29:35;;;;;;;20.83;12.25;;;;;;;;;;5057511;28;20052;-83
2022/04/18 07:32:01;;;;;;;19.40;12.57;;;;;;;;;;5043816;28;20030;-83
2022/04/18 07:34:29;;;;;;;10.63;7.35;;;;;;;;;;5038769;28;20049;-83
2022/04/18 07:36:55;;;;;;;24.10;14.23;;;;;;;;;;5040113;28;20442;-82
2022/04/18 07:39:21;;;;;;;42.90;23.83;;;;;;;;;;5041712;28;20023;-82
2022/04/18 07:41:47;;;;;;;22.58;13.15;;;;;;;;;;5034188;28;20436;-82
2022/04/18 07:44:13;;;;;;;14.60;8.75;;;;;;;;;;5042669;28;20026;-81
2022/04/18 07:46:39;;;;;;;10.20;6.30;;;;;;;;;;5047912;28;20033;-81
2022/04/18 07:49:05;;;;;;;23.52;11.70;;;;;;;;;;5048419;28;20025;-83
2022/04/18 07:51:35;;;;;;;25.35;14.02;;;;;;;;;;5035756;28;20029;-81
2022/04/18 07:54:17;;;;;;;26.48;14.55;;;;;;;;;;5041041;28;20032;-81
2022/04/18 07:56:46;;;;;;;13.10;8.10;;;;;;;;;;5034694;28;20083;-82
2022/04/18 07:59:12;;;;;;;11.55;7.30;;;;;;;;;;5033950;28;20026;-82
2022/04/18 08:01:38;;;;;;;16.70;9.90;;;;;;;;;;5041544;28;20056;-82
2022/04/18 08:04:04;;;;;;;22.08;11.60;;;;;;;;;;5039599;28;20052;-82
2022/04/18 08:06:31;;;;;;;12.10;7.10;;;;;;;;;;5029167;28;20025;-82
2022/04/18 08:08:57;;;;;;;9.05;5.68;;;;;;;;;;5045185;28;20061;-81
2022/04/18 08:11:24;;;;;;;8.00;5.57;;;;;;;;;;5047600;28;20081;-82
2022/04/18 08:13:50;;;;;;;11.02;5.72;;;;;;;;;;5051645;28;20057;-81
2022/04/18 08:16:16;;;;;;;8.55;5.75;;;;;;;;;;5070911;28;20478;-81
2022/04/18 08:18:44;;;;;;;9.15;5.88;;;;;;;;;;5045151;28;20078;-81
2022/04/18 08:21:15;;;;;;;12.27;7.70;;;;;;;;;;5044145;28;20049;-81
2022/04/18 08:23:41;;;;;;;10.60;6.63;;;;;;;;;;5044585;28;20010;-81
2022/04/18 08:26:07;;;;;;;9.15;6.40;;;;;;;;;;5038372;28;20063;-81
2022/04/18 08:28:34;;;;;;;8.07;4.80;;;;;;;;;;5049966;28;20026;-81
2022/04/18 08:31:00;;;;;;;7.50;5.30;;;;;;;;;;5042217;28;20029;-81
2022/04/18 08:33:28;;;;;;;7.35;5.45;;;;;;;;;;5064860;28;20650;-80
2022/04/18 08:35:54;;;;;;;8.05;5.30;;;;;;;;;;5053882;28;20036;-81
2022/04/18 08:38:21;;;;;;;9.15;5.45;;;;;;;;;;5040282;28;20054;-82
2022/04/18 08:40:48;;;;;;;9.48;6.10;;;;;;;;;;5048343;28;20075;-81
2022/04/18 08:43:15;;;;;;;9.55;6.03;;;;;;;;;;5054069;28;20029;-82
2022/04/18 08:45:41;;;;;;;10.75;6.40;;;;;;;;;;5029390;28;20030;-81
2022/04/18 08:53:37;;;;;;;10.30;6.95;;;;;;;;;;5039530;28;20063;-80
2022/04/18 08:56:03;;;;;;;9.13;6.55;;;;;;;;;;5050835;28;20503;-81
2022/04/18 08:58:29;;;;;;;10.02;7.43;;;;;;;;;;5056218;28;20087;-81
2022/04/18 09:00:56;;;;;;;9.52;6.18;;;;;;;;;;5061449;28;20085;-81
2022/04/18 09:03:22;;;;;;;8.70;5.70;;;;;;;;;;5050699;28;20018;-81
2022/04/18 09:05:49;;;;;;;9.68;6.60;;;;;;;;;;5050013;28;20029;-81
2022/04/18 09:08:15;;;;;;;9.63;6.30;;;;;;;;;;5049455;28;20057;-81
2022/04/18 09:10:42;;;;;;;7.88;5.80;;;;;;;;;;5040323;28;20052;-82
2022/04/18 09:13:12;;;;;;;9.00;6.45;;;;;;;;;;5039790;28;20025;-81
2022/04/18 09:15:51;;;;;;;8.50;5.60;;;;;;;;;;5033855;28;20045;-82
2022/04/18 09:18:18;;;;;;;13.50;5.75;;;;;;;;;;5031228;28;20030;-81
2022/04/18 09:20:48;;;;;;;8.18;5.60;;;;;;;;;;5038865;28;20137;-81
2022/04/18 09:23:24;;;;;;;9.13;5.72;;;;;;;;;;5039281;28;20029;-80
2022/04/18 09:25:57;;;;;;;9.68;5.43;;;;;;;;;;5036256;28;20034;-81
2022/04/18 09:28:28;;;;;;;8.07;5.30;;;;;;;;;;5046281;28;20756;-81
2022/04/18 09:30:58;;;;;;;7.45;4.82;;;;;;;;;;5059245;28;20042;-81
2022/04/18 09:33:27;;;;;;;9.93;5.65;;;;;;;;;;5046915;28;20033;-80
2022/04/18 09:35:54;;;;;;;8.88;5.78;;;;;;;;;;5039838;28;20029;-82
2022/04/18 09:38:20;;;;;;;7.57;5.18;;;;;;;;;;5037748;28;20104;-82
2022/04/18 09:40:46;;;;;;;8.27;5.43;;;;;;;;;;5044725;28;20052;-82
2022/04/18 09:43:12;;;;;;;7.65;5.22;;;;;;;;;;5040538;28;20045;-82
2022/04/18 09:45:38;;;;;;;8.55;5.00;;;;;;;;;;5048903;28;20021;-82
2022/04/18 09:48:04;;;;;;;8.30;4.80;;;;;;;;;;5035097;28;20034;-81
2022/04/18 09:53:26;;;;;;;8.10;4.93;;;;;;;;;;5051376;28;20108;-82
2022/04/18 09:55:52;;;;;;;7.20;4.72;;;;;;;;;;5042370;28;20026;-82
2022/04/18 09:58:19;;;;;;;7.22;4.65;;;;;;;;;;5037051;28;20017;-82
2022/04/18 10:00:45;;;;;;;7.70;5.57;;;;;;;;;;5054666;28;20051;-81
2022/04/18 10:03:12;;;;;;;11.55;6.97;;;;;;;;;;5046278;28;20025;-80
2022/04/18 10:05:39;;;;;;;8.10;4.53;;;;;;;;;;5040372;28;20061;-82
2022/04/18 10:08:05;;;;;;;7.45;4.65;;;;;;;;;;5027650;28;20149;-82
2022/04/18 10:10:34;;;;;;;7.55;4.93;;;;;;;;;;5041623;28;20113;-82
2022/04/18 10:13:01;;;;;;;7.80;5.20;;;;;;;;;;5037411;28;20055;-82
2022/04/18 10:15:27;;;;;;;6.90;4.50;;;;;;;;;;5035751;28;20037;-82
2022/04/18 10:17:54;;;;;;;8.07;4.95;;;;;;;;;;5060024;28;20025;-81
2022/04/18 10:20:39;;;;;;;8.27;4.45;;;;;;;;;;5044483;28;20026;-83
2022/04/18 10:23:17;;;;;;;8.88;5.22;;;;;;;;;;5029315;28;20037;-81
2022/04/18 10:25:52;;;;;;;9.38;5.32;;;;;;;;;;5042738;28;20030;-82
2022/04/18 10:28:24;;;;;;;9.18;5.93;;;;;;;;;;5053164;28;20053;-82
2022/04/18 10:30:53;;;;;;;8.20;4.43;;;;;;;;;;5046234;28;20030;-81
2022/04/18 10:33:19;;;;;;;8.93;4.88;;;;;;;;;;5044725;28;20030;-82
2022/04/18 10:35:55;;;;;;;9.00;5.75;;;;;;;;;;5037072;28;20142;-81
2022/04/18 10:38:24;;;;;;;7.10;5.25;;;;;;;;;;5046350;28;20037;-81
2022/04/18 10:40:50;;;;;;;8.30;4.88;;;;;;;;;;5044644;28;20018;-82
2022/04/18 10:43:16;;;;;;;6.95;4.40;;;;;;;;;;5032620;28;20014;-81
2022/04/18 10:45:42;;;;;;;7.85;5.65;;;;;;;;;;5040566;28;20033;-81
2022/04/18 10:48:11;;;;;;;6.93;4.65;;;;;;;;;;5049788;28;20057;-82
2022/04/18 10:50:42;;;;;;;8.40;5.18;;;;;;;;;;5049790;28;20029;-82
2022/04/18 10:53:11;;;;;;;7.43;4.72;;;;;;;;;;5056479;28;20076;-83
2022/04/18 10:55:38;;;;;;;7.38;4.50;;;;;;;;;;5058931;28;20021;-82
2022/04/18 10:58:11;;;;;;;10.35;4.93;;;;;;;;;;5078052;28;20029;-81
2022/04/18 11:00:46;;;;;;;7.95;4.63;;;;;;;;;;5072368;28;20077;-84
2022/04/18 11:03:12;;;;;;;8.50;4.90;;;;;;;;;;5057745;28;20028;-82
2022/04/18 11:05:38;;;;;;;7.95;5.20;;;;;;;;;;5061092;28;20371;-81
2022/04/18 11:08:23;;;;;;;7.63;4.60;;;;;;;;;;5063081;28;20036;-81
2022/04/18 11:10:49;;;;;;;8.07;4.72;;;;;;;;;;5067784;28;20039;-82
2022/04/18 11:13:15;;;;;;;6.82;4.43;;;;;;;;;;5043504;28;20048;-81
2022/04/18 11:15:41;;;;;;;7.47;5.18;;;;;;;;;;5057078;28;20057;-81
2022/04/18 11:18:10;;;;;;;7.70;4.93;;;;;;;;;;5045987;28;20436;-81
2022/04/18 11:20:36;;;;;;;8.07;5.13;;;;;;;;;;5052040;28;20017;-81
2022/04/18 11:23:21;;;;;;;10.48;6.53;;;;;;;;;;5047626;28;20040;-81
2022/04/18 11:26:03;;;;;;;8.55;5.43;;;;;;;;;;5058621;28;20029;-81
2022/04/18 11:28:39;;;;;;;6.85;5.15;;;;;;;;;;5067394;28;20032;-82
2022/04/18 11:31:09;;;;;;;8.63;5.32;;;;;;;;;;5071376;28;20009;-81
2022/04/18 11:33:42;;;;;;;7.60;4.70;;;;;;;;;;5077498;28;20025;-82
2022/04/18 11:36:09;;;;;;;9.80;5.22;;;;;;;;;;5055748;28;20041;-83
2022/04/18 11:38:35;;;;;;;8.55;5.53;;;;;;;;;;5055956;28;20033;-83
2022/04/18 11:41:01;;;;;;;7.65;4.97;;;;;;;;;;5053278;28;20038;-82
2022/04/18 11:43:28;;;;;;;7.45;5.00;;;;;;;;;;5046924;28;20033;-82
2022/04/18 11:46:03;;;;;;;8.77;5.28;;;;;;;;;;5048088;28;20026;-82
2022/04/18 11:48:29;;;;;;;7.82;5.38;;;;;;;;;;5058969;28;20124;-82
2022/04/18 11:50:55;;;;;;;8.80;5.30;;;;;;;;;;5026649;28;20033;-82
2022/04/18 11:53:21;;;;;;;8.20;5.22;;;;;;;;;;5024908;28;20029;-82
2022/04/18 11:55:49;;;;;;;9.30;5.78;;;;;;;;;;5053940;28;20033;-83
2022/04/18 11:58:20;;;;;;;9.88;6.03;;;;;;;;;;5065412;28;20043;-82
2022/04/18 12:09:11;;;;;;;8.25;5.55;;;;;;;;;;5038871;28;20411;-82
2022/04/18 12:11:37;;;;;;;7.82;6.18;;;;;;;;;;5048502;28;20022;-82
2022/04/18 12:14:04;;;;;;;6.50;4.97;;;;;;;;;;5039882;28;20301;-81
2022/04/18 12:16:37;;;;;;;6.93;5.25;;;;;;;;;;5059406;28;20040;-82
2022/04/18 12:19:05;;;;;;;8.90;5.88;;;;;;;;;;5064283;28;20048;-82
2022/04/18 12:21:31;;;;;;;8.40;5.55;;;;;;;;;;5054077;28;20487;-82
2022/04/18 12:23:58;;;;;;;7.28;5.43;;;;;;;;;;5041431;28;20026;-85
2022/04/18 12:26:28;;;;;;;7.57;5.30;;;;;;;;;;5029496;28;20022;-82
2022/04/18 12:28:58;;;;;;;8.88;5.13;;;;;;;;;;5052439;28;20025;-83
2022/04/18 12:31:24;;;;;;;7.10;4.43;;;;;;;;;;5062234;28;20097;-81
2022/04/18 12:33:50;;;;;;;7.18;4.78;;;;;;;;;;5064439;28;20088;-82
2022/04/18 12:36:23;;;;;;;8.32;5.40;;;;;;;;;;5054915;28;20025;-82
2022/04/18 12:38:49;;;;;;;7.25;5.10;;;;;;;;;;5065077;28;20478;-82
2022/04/18 12:41:15;;;;;;;8.00;5.43;;;;;;;;;;5062760;28;20029;-82
2022/04/18 12:43:41;;;;;;;8.30;5.38;;;;;;;;;;5069481;28;20029;-82
2022/04/18 12:46:09;;;;;;;7.25;5.25;;;;;;;;;;5055584;28;20048;-82
2022/04/18 12:48:35;;;;;;;6.97;5.00;;;;;;;;;;5031688;28;20032;-82
2022/04/18 12:51:03;;;;;;;8.10;5.32;;;;;;;;;;5031811;28;20041;-82
2022/04/18 12:53:45;;;;;;;6.15;4.50;;;;;;;;;;5037982;28;20085;-83
2022/04/18 12:56:13;;;;;;;7.57;5.43;;;;;;;;;;5072326;28;20055;-82
2022/04/18 12:58:39;;;;;;;7.47;5.20;;;;;;;;;;5069476;28;20499;-82
2022/04/18 13:01:06;;;;;;;7.32;5.55;;;;;;;;;;5059771;28;20028;-82
2022/04/18 13:03:41;;;;;;;7.40;4.78;;;;;;;;;;5071382;28;20012;-81
2022/04/18 13:06:07;;;;;;;8.48;5.95;;;;;;;;;;5072038;28;20024;-81
2022/04/18 13:08:37;;;;;;;8.82;5.45;;;;;;;;;;5069684;28;20045;-83
2022/04/18 13:11:03;;;;;;;7.32;5.47;;;;;;;;;;5070516;28;20025;-83
2022/04/18 13:13:29;;;;;;;7.35;5.28;;;;;;;;;;5065851;28;20028;-82
2022/04/18 13:15:55;;;;;;;7.43;5.20;;;;;;;;;;5047324;28;20048;-81
2022/04/18 13:18:28;;;;;;;12.00;5.47;;;;;;;;;;5048484;28;20020;-81
2022/04/18 13:20:54;;;;;;;8.82;6.03;;;;;;;;;;5049179;28;20059;-83
2022/04/18 13:23:21;;;;;;;7.85;5.28;;;;;;;;;;5049046;28;20499;-80
2022/04/18 13:25:47;;;;;;;7.13;5.10;;;;;;;;;;5050483;28;20032;-80
2022/04/18 13:28:15;;;;;;;7.05;5.00;;;;;;;;;;5049837;28;20029;-82
2022/04/18 13:30:41;;;;;;;7.95;5.00;;;;;;;;;;5067823;28;20025;-83
2022/04/18 13:33:09;;;;;;;7.40;5.28;;;;;;;;;;5068906;28;20036;-83
2022/04/18 13:36:30;;;;;;;7.25;5.35;;;;;;;;;;5069721;28;20095;-80
2022/04/18 13:38:22;;;;;;;7.28;4.97;;;;;;;;;;5067216;28;20097;-80
2022/04/18 13:40:48;;;;;;;6.65;5.10;;;;;;;;;;5050500;28;20464;-83
2022/04/18 13:43:14;;;;;;;7.13;5.15;;;;;;;;;;5052947;28;20032;-81
2022/04/18 13:45:41;;;;;;;8.43;6.05;;;;;;;;;;5053247;28;20040;-81
2022/04/18 13:48:07;;;;;;;7.85;4.90;;;;;;;;;;5048222;28;20029;-80
2022/04/18 13:50:34;;;;;;;7.18;5.32;;;;;;;;;;5069508;28;20033;-82
2022/04/18 13:53:01;;;;;;;8.73;6.47;;;;;;;;;;5069697;28;20033;-80
2022/04/18 13:55:27;;;;;;;7.28;5.53;;;;;;;;;;5052177;28;20037;-81
2022/04/18 13:57:53;;;;;;;9.05;5.78;;;;;;;;;;5051246;28;20021;-81
2022/04/18 14:00:19;;;;;;;8.90;5.35;;;;;;;;;;5068677;28;20023;-80
2022/04/18 14:02:45;;;;;;;7.97;5.70;;;;;;;;;;5046742;28;20036;-81
2022/04/18 14:05:11;;;;;;;9.35;5.80;;;;;;;;;;5049591;28;20021;-81
2022/04/18 14:07:38;;;;;;;8.05;5.63;;;;;;;;;;5048913;28;20033;-80
2022/04/18 14:10:05;;;;;;;11.10;5.32;;;;;;;;;;5047387;28;20025;-80
2022/04/18 14:12:31;;;;;;;7.63;5.47;;;;;;;;;;5064154;28;20025;-82
2022/04/18 14:20:28;;;;;;;7.20;5.47;;;;;;;;;;5046444;28;20126;-81
2022/04/18 14:22:54;;;;;;;8.00;5.60;;;;;;;;;;5048612;28;20037;-81
2022/04/18 14:25:22;;;;;;;7.38;5.85;;;;;;;;;;5057619;28;20055;-80
2022/04/18 14:27:48;;;;;;;7.13;5.45;;;;;;;;;;5056077;28;20020;-81
2022/04/18 14:30:14;;;;;;;8.55;5.80;;;;;;;;;;5067479;28;20005;-81
2022/04/18 14:32:41;;;;;;;8.07;6.18;;;;;;;;;;5069744;28;20021;-80
2022/04/18 14:35:08;;;;;;;8.18;6.05;;;;;;;;;;5068496;28;20021;-81
2022/04/18 14:37:34;;;;;;;9.35;6.53;;;;;;;;;;5068841;28;20041;-80
2022/04/18 14:40:00;;;;;;;7.80;6.10;;;;;;;;;;5058724;28;20033;-81
2022/04/18 14:42:26;;;;;;;8.82;6.80;;;;;;;;;;5035184;28;20060;-82
2022/04/18 14:44:52;;;;;;;8.32;5.60;;;;;;;;;;5036897;28;20021;-82
2022/04/18 14:47:18;;;;;;;8.25;6.32;;;;;;;;;;5037542;28;20025;-83
2022/04/18 14:49:44;;;;;;;7.53;5.60;;;;;;;;;;5035667;28;20518;-82
2022/04/18 14:52:11;;;;;;;9.10;6.45;;;;;;;;;;5037315;28;20022;-82
2022/04/18 14:54:37;;;;;;;8.30;6.45;;;;;;;;;;5052021;28;20061;-82
2022/04/18 14:57:04;;;;;;;8.20;6.10;;;;;;;;;;5036227;28;20092;-83
2022/04/18 14:59:30;;;;;;;9.60;6.07;;;;;;;;;;5035802;28;20030;-82
2022/04/18 15:01:56;;;;;;;10.23;6.70;;;;;;;;;;5043773;28;20055;-81
2022/04/18 15:04:22;;;;;;;8.95;6.40;;;;;;;;;;5054681;28;20213;-82
2022/04/18 15:06:49;;;;;;;8.40;6.20;;;;;;;;;;5046997;28;20076;-82